sensor_id;sensor_type;location;lat;lon;timestamp;temperature;humidity
52941;DHT22;62001;53.366;6.636;2023-12-20T00:01:01;5.30;99.90
52941;DHT22;62001;53.366;6.636;2023-12-20T00:03:27;5.30;99.90
52941;DHT22;62001;53.366;6.636;2023-12-20T00:05:53;5.30;99.90
52941;DHT22;62001;53.366;6.636;2023-12-20T00:08:19;5.30;99.90
52941;DHT22;62001;53.366;6.636;2023-12-20T00:10:45;5.30;99.90
52941;DHT22;62001;53.366;6.636;2023-12-20T00:13:11;5.30;99.90
52941;DHT22;62001;53.366;6.636;2023-12-20T00:15:37;5.30;99.90
52941;DHT22;62001;53.366;6.636;2023-12-20T00:18:03;5.30;99.90
52941;DHT22;62001;53.366;6.636;2023-12-20T00:20:29;5.20;99.90
52941;DHT22;62001;53.366;6.636;2023-12-20T00:22:56;5.20;99.90
52941;DHT22;62001;53.366;6.636;2023-12-20T00:25:23;5.20;99.90
52941;DHT22;62001;53.366;6.636;2023-12-20T00:27:49;5.20;99.90
52941;DHT22;62001;53.366;6.636;2023-12-20T00:30:15;5.10;99.90
52941;DHT22;62001;53.366;6.636;2023-12-20T00:32:41;5.10;99.90
52941;DHT22;62001;53.366;6.636;2023-12-20T00:35:14;5.10;99.90
52941;DHT22;62001;53.366;6.636;2023-12-20T00:37:40;5.10;99.90
52941;DHT22;62001;53.366;6.636;2023-12-20T00:40:06;5.10;99.90
52941;DHT22;62001;53.366;6.636;2023-12-20T00:42:32;5.10;99.90
52941;DHT22;62001;53.366;6.636;2023-12-20T00:44:59;5.10;99.90
52941;DHT22;62001;53.366;6.636;2023-12-20T00:47:25;5.10;99.90
52941;DHT22;62001;53.366;6.636;2023-12-20T00:49:51;5.10;99.90
52941;DHT22;62001;53.366;6.636;2023-12-20T00:52:17;5.10;99.90
52941;DHT22;62001;53.366;6.636;2023-12-20T00:54:43;5.20;99.90
52941;DHT22;62001;53.366;6.636;2023-12-20T00:57:09;5.30;99.90
52941;DHT22;62001;53.366;6.636;2023-12-20T00:59:35;5.30;99.90
52941;DHT22;62001;53.366;6.636;2023-12-20T01:02:02;5.40;99.90
52941;DHT22;62001;53.366;6.636;2023-12-20T01:04:28;5.50;99.90
52941;DHT22;62001;53.366;6.636;2023-12-20T01:06:53;5.50;99.90
52941;DHT22;62001;53.366;6.636;2023-12-20T01:09:19;5.70;99.90
52941;DHT22;62001;53.366;6.636;2023-12-20T01:11:49;5.70;99.90
52941;DHT22;62001;53.366;6.636;2023-12-20T01:14:15;5.70;99.90
52941;DHT22;62001;53.366;6.636;2023-12-20T01:16:40;5.80;99.90
52941;DHT22;62001;53.366;6.636;2023-12-20T01:19:06;5.80;99.90
52941;DHT22;62001;53.366;6.636;2023-12-20T01:21:32;5.80;99.90
52941;DHT22;62001;53.366;6.636;2023-12-20T01:23:58;5.70;99.90
52941;DHT22;62001;53.366;6.636;2023-12-20T01:26:23;5.70;99.90
52941;DHT22;62001;53.366;6.636;2023-12-20T01:28:49;5.70;99.90
52941;DHT22;62001;53.366;6.636;2023-12-20T01:31:16;5.70;99.90
52941;DHT22;62001;53.366;6.636;2023-12-20T01:33:41;5.70;99.90
52941;DHT22;62001;53.366;6.636;2023-12-20T01:36:07;5.70;99.90
52941;DHT22;62001;53.366;6.636;2023-12-20T01:38:34;5.70;99.90
52941;DHT22;62001;53.366;6.636;2023-12-20T01:41:00;5.70;99.90
52941;DHT22;62001;53.366;6.636;2023-12-20T01:43:26;5.70;99.90
52941;DHT22;62001;53.366;6.636;2023-12-20T01:45:52;5.60;99.90
52941;DHT22;62001;53.366;6.636;2023-12-20T01:48:18;5.70;99.90
52941;DHT22;62001;53.366;6.636;2023-12-20T01:50:45;5.60;99.90
52941;DHT22;62001;53.366;6.636;2023-12-20T01:53:12;5.60;99.90
52941;DHT22;62001;53.366;6.636;2023-12-20T01:55:40;5.50;99.90
52941;DHT22;62001;53.366;6.636;2023-12-20T01:58:07;5.50;99.90
52941;DHT22;62001;53.366;6.636;2023-12-20T02:00:34;5.50;99.90
52941;DHT22;62001;53.366;6.636;2023-12-20T02:03:01;5.50;99.90
52941;DHT22;62001;53.366;6.636;2023-12-20T02:05:28;5.50;99.90
52941;DHT22;62001;53.366;6.636;2023-12-20T02:07:55;5.50;99.90
52941;DHT22;62001;53.366;6.636;2023-12-20T02:10:21;5.60;99.90
52941;DHT22;62001;53.366;6.636;2023-12-20T02:12:47;5.60;99.90
52941;DHT22;62001;53.366;6.636;2023-12-20T02:15:13;5.60;99.90
52941;DHT22;62001;53.366;6.636;2023-12-20T02:17:39;5.60;99.90
52941;DHT22;62001;53.366;6.636;2023-12-20T02:20:06;5.60;99.90
52941;DHT22;62001;53.366;6.636;2023-12-20T02:22:32;5.60;99.90
52941;DHT22;62001;53.366;6.636;2023-12-20T02:24:57;5.60;99.90
52941;DHT22;62001;53.366;6.636;2023-12-20T02:27:23;5.60;99.90
52941;DHT22;62001;53.366;6.636;2023-12-20T02:29:50;5.60;99.90
52941;DHT22;62001;53.366;6.636;2023-12-20T02:32:19;5.60;99.90
52941;DHT22;62001;53.366;6.636;2023-12-20T02:34:47;5.60;99.90
52941;DHT22;62001;53.366;6.636;2023-12-20T02:37:14;5.60;99.90
52941;DHT22;62001;53.366;6.636;2023-12-20T02:39:40;5.70;99.90
52941;DHT22;62001;53.366;6.636;2023-12-20T02:42:05;5.70;99.90
52941;DHT22;62001;53.366;6.636;2023-12-20T02:44:31;5.70;99.90
52941;DHT22;62001;53.366;6.636;2023-12-20T02:46:57;5.70;99.90
52941;DHT22;62001;53.366;6.636;2023-12-20T02:49:23;5.70;99.90
52941;DHT22;62001;53.366;6.636;2023-12-20T02:51:49;5.70;99.90
52941;DHT22;62001;53.366;6.636;2023-12-20T02:54:15;5.80;99.90
52941;DHT22;62001;53.366;6.636;2023-12-20T02:56:41;5.90;99.90
52941;DHT22;62001;53.366;6.636;2023-12-20T02:59:06;5.90;99.90
52941;DHT22;62001;53.366;6.636;2023-12-20T03:01:34;6.00;99.90
52941;DHT22;62001;53.366;6.636;2023-12-20T03:04:01;6.00;99.90
52941;DHT22;62001;53.366;6.636;2023-12-20T03:06:27;6.00;99.90
52941;DHT22;62001;53.366;6.636;2023-12-20T03:08:53;6.00;99.90
52941;DHT22;62001;53.366;6.636;2023-12-20T03:11:18;6.00;99.90
52941;DHT22;62001;53.366;6.636;2023-12-20T03:13:44;5.90;99.90
52941;DHT22;62001;53.366;6.636;2023-12-20T03:16:11;5.80;99.90
52941;DHT22;62001;53.366;6.636;2023-12-20T03:18:37;5.80;99.90
52941;DHT22;62001;53.366;6.636;2023-12-20T03:21:06;5.70;99.90
52941;DHT22;62001;53.366;6.636;2023-12-20T03:23:32;5.70;99.90
52941;DHT22;62001;53.366;6.636;2023-12-20T03:25:59;5.70;99.90
52941;DHT22;62001;53.366;6.636;2023-12-20T03:28:26;5.70;99.90
52941;DHT22;62001;53.366;6.636;2023-12-20T03:30:52;5.70;99.90
52941;DHT22;62001;53.366;6.636;2023-12-20T03:33:18;5.70;99.90
52941;DHT22;62001;53.366;6.636;2023-12-20T03:35:44;5.70;99.90
52941;DHT22;62001;53.366;6.636;2023-12-20T03:38:10;5.80;99.90
52941;DHT22;62001;53.366;6.636;2023-12-20T03:40:36;5.80;99.90
52941;DHT22;62001;53.366;6.636;2023-12-20T03:43:02;5.80;99.90
52941;DHT22;62001;53.366;6.636;2023-12-20T03:45:27;5.90;99.90
52941;DHT22;62001;53.366;6.636;2023-12-20T03:47:53;5.90;99.90
52941;DHT22;62001;53.366;6.636;2023-12-20T03:50:24;5.90;99.90
52941;DHT22;62001;53.366;6.636;2023-12-20T03:52:50;6.00;99.90
52941;DHT22;62001;53.366;6.636;2023-12-20T03:55:16;5.90;99.90
52941;DHT22;62001;53.366;6.636;2023-12-20T03:57:42;5.90;99.90
52941;DHT22;62001;53.366;6.636;2023-12-20T04:00:08;6.00;99.90
52941;DHT22;62001;53.366;6.636;2023-12-20T04:02:41;5.90;99.90
52941;DHT22;62001;53.366;6.636;2023-12-20T04:05:08;5.90;99.90
52941;DHT22;62001;53.366;6.636;2023-12-20T04:07:34;5.90;99.90
52941;DHT22;62001;53.366;6.636;2023-12-20T04:10:00;5.90;99.90
52941;DHT22;62001;53.366;6.636;2023-12-20T04:12:28;5.90;99.90
52941;DHT22;62001;53.366;6.636;2023-12-20T04:14:54;5.90;99.90
52941;DHT22;62001;53.366;6.636;2023-12-20T04:17:20;5.90;99.90
52941;DHT22;62001;53.366;6.636;2023-12-20T04:19:48;5.90;99.90
52941;DHT22;62001;53.366;6.636;2023-12-20T04:22:14;6.00;99.90
52941;DHT22;62001;53.366;6.636;2023-12-20T04:24:40;6.00;99.90
52941;DHT22;62001;53.366;6.636;2023-12-20T04:27:08;6.10;99.90
52941;DHT22;62001;53.366;6.636;2023-12-20T04:29:34;6.20;99.90
52941;DHT22;62001;53.366;6.636;2023-12-20T04:32:00;6.30;99.90
52941;DHT22;62001;53.366;6.636;2023-12-20T04:34:26;6.30;99.90
52941;DHT22;62001;53.366;6.636;2023-12-20T04:36:52;6.30;99.90
52941;DHT22;62001;53.366;6.636;2023-12-20T04:39:18;6.30;99.90
52941;DHT22;62001;53.366;6.636;2023-12-20T04:41:43;6.40;99.90
52941;DHT22;62001;53.366;6.636;2023-12-20T04:44:09;6.40;99.90
52941;DHT22;62001;53.366;6.636;2023-12-20T04:46:35;6.40;99.90
52941;DHT22;62001;53.366;6.636;2023-12-20T04:49:01;6.40;99.90
52941;DHT22;62001;53.366;6.636;2023-12-20T04:51:27;6.40;99.90
52941;DHT22;62001;53.366;6.636;2023-12-20T04:53:53;6.50;99.90
52941;DHT22;62001;53.366;6.636;2023-12-20T04:56:18;6.50;99.90
52941;DHT22;62001;53.366;6.636;2023-12-20T04:58:44;6.50;99.90
52941;DHT22;62001;53.366;6.636;2023-12-20T05:01:10;6.50;99.90
52941;DHT22;62001;53.366;6.636;2023-12-20T05:03:37;6.60;99.90
52941;DHT22;62001;53.366;6.636;2023-12-20T05:06:03;6.60;99.90
52941;DHT22;62001;53.366;6.636;2023-12-20T05:08:29;6.60;99.90
52941;DHT22;62001;53.366;6.636;2023-12-20T05:10:55;6.70;99.90
52941;DHT22;62001;53.366;6.636;2023-12-20T05:13:21;6.70;99.90
52941;DHT22;62001;53.366;6.636;2023-12-20T05:15:47;6.70;99.90
52941;DHT22;62001;53.366;6.636;2023-12-20T05:18:13;6.70;99.90
52941;DHT22;62001;53.366;6.636;2023-12-20T05:20:39;6.80;99.90
52941;DHT22;62001;53.366;6.636;2023-12-20T05:23:05;6.80;99.90
52941;DHT22;62001;53.366;6.636;2023-12-20T05:25:31;6.80;99.90
52941;DHT22;62001;53.366;6.636;2023-12-20T05:27:57;6.80;99.90
52941;DHT22;62001;53.366;6.636;2023-12-20T05:30:23;6.90;99.90
52941;DHT22;62001;53.366;6.636;2023-12-20T05:32:49;6.90;99.90
52941;DHT22;62001;53.366;6.636;2023-12-20T05:35:15;6.90;99.90
52941;DHT22;62001;53.366;6.636;2023-12-20T05:37:41;6.90;99.90
52941;DHT22;62001;53.366;6.636;2023-12-20T05:40:08;7.00;99.90
52941;DHT22;62001;53.366;6.636;2023-12-20T05:42:37;7.00;99.90
52941;DHT22;62001;53.366;6.636;2023-12-20T05:45:06;7.00;99.90
52941;DHT22;62001;53.366;6.636;2023-12-20T05:47:32;7.00;99.90
52941;DHT22;62001;53.366;6.636;2023-12-20T05:49:58;7.00;99.90
52941;DHT22;62001;53.366;6.636;2023-12-20T05:52:24;7.00;99.90
52941;DHT22;62001;53.366;6.636;2023-12-20T05:54:50;7.00;99.90
52941;DHT22;62001;53.366;6.636;2023-12-20T05:57:16;7.00;99.90
52941;DHT22;62001;53.366;6.636;2023-12-20T05:59:41;7.10;99.90
52941;DHT22;62001;53.366;6.636;2023-12-20T06:02:07;7.10;99.90
52941;DHT22;62001;53.366;6.636;2023-12-20T06:04:33;7.10;99.90
52941;DHT22;62001;53.366;6.636;2023-12-20T06:06:59;7.10;99.90
52941;DHT22;62001;53.366;6.636;2023-12-20T06:09:27;7.10;99.90
52941;DHT22;62001;53.366;6.636;2023-12-20T06:11:53;7.10;99.90
52941;DHT22;62001;53.366;6.636;2023-12-20T06:14:19;7.10;99.90
52941;DHT22;62001;53.366;6.636;2023-12-20T06:16:45;7.10;99.90
52941;DHT22;62001;53.366;6.636;2023-12-20T06:19:11;7.10;99.90
52941;DHT22;62001;53.366;6.636;2023-12-20T06:21:37;7.10;99.90
52941;DHT22;62001;53.366;6.636;2023-12-20T06:24:03;7.10;99.90
52941;DHT22;62001;53.366;6.636;2023-12-20T06:26:29;7.20;99.90
52941;DHT22;62001;53.366;6.636;2023-12-20T06:28:55;7.10;99.90
52941;DHT22;62001;53.366;6.636;2023-12-20T06:31:21;7.20;99.90
52941;DHT22;62001;53.366;6.636;2023-12-20T06:33:47;7.20;99.90
52941;DHT22;62001;53.366;6.636;2023-12-20T06:36:15;7.20;99.90
52941;DHT22;62001;53.366;6.636;2023-12-20T06:38:41;7.20;99.90
52941;DHT22;62001;53.366;6.636;2023-12-20T06:41:07;7.30;99.90
52941;DHT22;62001;53.366;6.636;2023-12-20T06:43:33;7.30;99.90
52941;DHT22;62001;53.366;6.636;2023-12-20T06:46:02;7.30;99.90
52941;DHT22;62001;53.366;6.636;2023-12-20T06:48:28;7.30;99.90
52941;DHT22;62001;53.366;6.636;2023-12-20T06:50:54;7.30;99.90
52941;DHT22;62001;53.366;6.636;2023-12-20T06:53:20;7.30;99.90
52941;DHT22;62001;53.366;6.636;2023-12-20T06:55:46;7.30;99.90
52941;DHT22;62001;53.366;6.636;2023-12-20T06:58:11;7.30;99.90
52941;DHT22;62001;53.366;6.636;2023-12-20T07:00:37;7.30;99.90
52941;DHT22;62001;53.366;6.636;2023-12-20T07:03:03;7.40;99.90
52941;DHT22;62001;53.366;6.636;2023-12-20T07:05:29;7.30;99.90
52941;DHT22;62001;53.366;6.636;2023-12-20T07:07:55;7.30;99.90
52941;DHT22;62001;53.366;6.636;2023-12-20T07:10:21;7.40;99.90
52941;DHT22;62001;53.366;6.636;2023-12-20T07:12:47;7.30;99.90
52941;DHT22;62001;53.366;6.636;2023-12-20T07:15:14;7.40;99.90
52941;DHT22;62001;53.366;6.636;2023-12-20T07:17:40;7.40;99.90
52941;DHT22;62001;53.366;6.636;2023-12-20T07:20:06;7.40;99.90
52941;DHT22;62001;53.366;6.636;2023-12-20T07:22:35;7.40;99.90
52941;DHT22;62001;53.366;6.636;2023-12-20T07:25:01;7.40;99.90
52941;DHT22;62001;53.366;6.636;2023-12-20T07:27:27;7.40;99.90
52941;DHT22;62001;53.366;6.636;2023-12-20T07:29:52;7.50;99.90
52941;DHT22;62001;53.366;6.636;2023-12-20T07:32:18;7.50;99.90
52941;DHT22;62001;53.366;6.636;2023-12-20T07:34:44;7.50;99.90
52941;DHT22;62001;53.366;6.636;2023-12-20T07:37:10;7.60;99.90
52941;DHT22;62001;53.366;6.636;2023-12-20T07:39:40;7.60;99.90
52941;DHT22;62001;53.366;6.636;2023-12-20T07:42:07;7.60;99.90
52941;DHT22;62001;53.366;6.636;2023-12-20T07:44:33;7.60;99.90
52941;DHT22;62001;53.366;6.636;2023-12-20T07:46:59;7.60;99.90
52941;DHT22;62001;53.366;6.636;2023-12-20T07:49:24;7.60;99.90
52941;DHT22;62001;53.366;6.636;2023-12-20T07:51:50;7.70;99.90
52941;DHT22;62001;53.366;6.636;2023-12-20T07:54:16;7.60;99.90
52941;DHT22;62001;53.366;6.636;2023-12-20T07:56:42;7.60;99.90
52941;DHT22;62001;53.366;6.636;2023-12-20T07:59:08;7.60;99.90
52941;DHT22;62001;53.366;6.636;2023-12-20T08:01:33;7.50;99.90
52941;DHT22;62001;53.366;6.636;2023-12-20T08:03:59;7.50;99.90
52941;DHT22;62001;53.366;6.636;2023-12-20T08:06:25;7.60;99.90
52941;DHT22;62001;53.366;6.636;2023-12-20T08:08:51;7.60;99.90
52941;DHT22;62001;53.366;6.636;2023-12-20T08:11:17;7.70;99.90
52941;DHT22;62001;53.366;6.636;2023-12-20T08:13:43;7.80;99.90
52941;DHT22;62001;53.366;6.636;2023-12-20T08:16:08;7.80;99.90
52941;DHT22;62001;53.366;6.636;2023-12-20T08:18:34;7.80;99.90
52941;DHT22;62001;53.366;6.636;2023-12-20T08:21:00;7.80;99.90
52941;DHT22;62001;53.366;6.636;2023-12-20T08:23:27;7.60;99.90
52941;DHT22;62001;53.366;6.636;2023-12-20T08:25:53;7.20;99.90
52941;DHT22;62001;53.366;6.636;2023-12-20T08:28:19;6.80;99.90
52941;DHT22;62001;53.366;6.636;2023-12-20T08:30:45;6.50;99.90
52941;DHT22;62001;53.366;6.636;2023-12-20T08:33:10;6.30;99.90
52941;DHT22;62001;53.366;6.636;2023-12-20T08:35:38;6.20;99.90
52941;DHT22;62001;53.366;6.636;2023-12-20T08:38:05;6.10;99.90
52941;DHT22;62001;53.366;6.636;2023-12-20T08:40:31;6.00;99.90
52941;DHT22;62001;53.366;6.636;2023-12-20T08:42:57;6.00;99.90
52941;DHT22;62001;53.366;6.636;2023-12-20T08:45:23;6.00;99.90
52941;DHT22;62001;53.366;6.636;2023-12-20T08:47:49;5.90;99.90
52941;DHT22;62001;53.366;6.636;2023-12-20T08:50:14;5.90;99.90
52941;DHT22;62001;53.366;6.636;2023-12-20T08:52:41;5.90;99.90
52941;DHT22;62001;53.366;6.636;2023-12-20T08:55:07;5.90;99.90
52941;DHT22;62001;53.366;6.636;2023-12-20T08:57:33;5.90;99.90
52941;DHT22;62001;53.366;6.636;2023-12-20T08:59:59;5.90;99.90
52941;DHT22;62001;53.366;6.636;2023-12-20T09:02:25;5.80;99.90
52941;DHT22;62001;53.366;6.636;2023-12-20T09:04:51;5.80;99.90
52941;DHT22;62001;53.366;6.636;2023-12-20T09:09:49;5.80;99.90
52941;DHT22;62001;53.366;6.636;2023-12-20T09:12:20;5.80;99.90
52941;DHT22;62001;53.366;6.636;2023-12-20T09:14:47;5.80;99.90
52941;DHT22;62001;53.366;6.636;2023-12-20T09:17:13;5.80;99.90
52941;DHT22;62001;53.366;6.636;2023-12-20T09:19:39;5.80;99.90
52941;DHT22;62001;53.366;6.636;2023-12-20T09:22:05;5.90;99.90
52941;DHT22;62001;53.366;6.636;2023-12-20T09:24:31;5.90;99.90
52941;DHT22;62001;53.366;6.636;2023-12-20T09:26:57;6.00;99.90
52941;DHT22;62001;53.366;6.636;2023-12-20T09:29:23;6.00;99.90
52941;DHT22;62001;53.366;6.636;2023-12-20T09:31:50;6.10;99.90
52941;DHT22;62001;53.366;6.636;2023-12-20T09:34:16;6.20;99.90
52941;DHT22;62001;53.366;6.636;2023-12-20T09:36:44;6.20;99.90
52941;DHT22;62001;53.366;6.636;2023-12-20T09:39:14;6.40;99.90
52941;DHT22;62001;53.366;6.636;2023-12-20T09:41:44;6.50;99.90
52941;DHT22;62001;53.366;6.636;2023-12-20T09:44:15;6.60;99.90
52941;DHT22;62001;53.366;6.636;2023-12-20T09:46:45;6.70;99.90
52941;DHT22;62001;53.366;6.636;2023-12-20T09:49:12;6.80;99.90
52941;DHT22;62001;53.366;6.636;2023-12-20T09:51:38;6.90;99.90
52941;DHT22;62001;53.366;6.636;2023-12-20T09:54:05;6.90;99.90
52941;DHT22;62001;53.366;6.636;2023-12-20T09:56:31;6.90;99.90
52941;DHT22;62001;53.366;6.636;2023-12-20T09:58:57;6.90;99.90
52941;DHT22;62001;53.366;6.636;2023-12-20T10:01:27;7.00;99.90
52941;DHT22;62001;53.366;6.636;2023-12-20T10:03:54;7.10;99.90
52941;DHT22;62001;53.366;6.636;2023-12-20T10:06:23;7.40;99.90
52941;DHT22;62001;53.366;6.636;2023-12-20T10:08:48;7.90;99.90
52941;DHT22;62001;53.366;6.636;2023-12-20T10:11:14;8.10;99.90
52941;DHT22;62001;53.366;6.636;2023-12-20T10:13:47;8.50;99.90
52941;DHT22;62001;53.366;6.636;2023-12-20T10:16:13;9.00;99.90
52941;DHT22;62001;53.366;6.636;2023-12-20T10:18:39;8.90;99.90
52941;DHT22;62001;53.366;6.636;2023-12-20T10:21:06;8.70;99.90
52941;DHT22;62001;53.366;6.636;2023-12-20T10:23:32;8.50;99.90
52941;DHT22;62001;53.366;6.636;2023-12-20T10:25:59;8.40;99.90
52941;DHT22;62001;53.366;6.636;2023-12-20T10:28:26;8.30;99.90
52941;DHT22;62001;53.366;6.636;2023-12-20T10:30:54;8.30;99.90
52941;DHT22;62001;53.366;6.636;2023-12-20T10:33:27;8.30;99.90
52941;DHT22;62001;53.366;6.636;2023-12-20T10:35:54;8.20;99.90
52941;DHT22;62001;53.366;6.636;2023-12-20T10:38:20;8.10;99.90
52941;DHT22;62001;53.366;6.636;2023-12-20T10:40:46;8.40;99.90
52941;DHT22;62001;53.366;6.636;2023-12-20T10:43:12;8.80;99.90
52941;DHT22;62001;53.366;6.636;2023-12-20T10:45:39;9.00;99.90
52941;DHT22;62001;53.366;6.636;2023-12-20T10:48:05;9.10;99.90
52941;DHT22;62001;53.366;6.636;2023-12-20T10:50:31;9.00;99.90
52941;DHT22;62001;53.366;6.636;2023-12-20T10:53:00;8.80;99.90
52941;DHT22;62001;53.366;6.636;2023-12-20T10:55:26;8.80;99.90
52941;DHT22;62001;53.366;6.636;2023-12-20T10:57:53;8.80;99.90
52941;DHT22;62001;53.366;6.636;2023-12-20T11:00:21;8.70;99.90
52941;DHT22;62001;53.366;6.636;2023-12-20T11:02:49;8.50;99.90
52941;DHT22;62001;53.366;6.636;2023-12-20T11:07:55;8.30;99.90
52941;DHT22;62001;53.366;6.636;2023-12-20T11:10:43;8.30;99.90
52941;DHT22;62001;53.366;6.636;2023-12-20T11:13:31;8.20;99.90
52941;DHT22;62001;53.366;6.636;2023-12-20T11:15:59;8.10;99.90
52941;DHT22;62001;53.366;6.636;2023-12-20T11:18:31;7.90;99.90
52941;DHT22;62001;53.366;6.636;2023-12-20T11:21:05;7.90;99.90
52941;DHT22;62001;53.366;6.636;2023-12-20T11:23:32;7.80;99.90
52941;DHT22;62001;53.366;6.636;2023-12-20T11:25:59;7.80;99.90
52941;DHT22;62001;53.366;6.636;2023-12-20T11:28:26;7.80;99.90
52941;DHT22;62001;53.366;6.636;2023-12-20T11:30:56;7.80;99.90
52941;DHT22;62001;53.366;6.636;2023-12-20T11:33:45;7.70;99.90
52941;DHT22;62001;53.366;6.636;2023-12-20T11:36:19;7.70;99.90
52941;DHT22;62001;53.366;6.636;2023-12-20T11:38:58;7.70;99.90
52941;DHT22;62001;53.366;6.636;2023-12-20T11:41:26;7.80;99.90
52941;DHT22;62001;53.366;6.636;2023-12-20T11:43:55;7.80;99.90
52941;DHT22;62001;53.366;6.636;2023-12-20T11:46:22;7.90;99.90
52941;DHT22;62001;53.366;6.636;2023-12-20T11:48:48;7.90;99.90
52941;DHT22;62001;53.366;6.636;2023-12-20T11:51:14;7.90;99.90
52941;DHT22;62001;53.366;6.636;2023-12-20T11:53:40;7.90;99.90
52941;DHT22;62001;53.366;6.636;2023-12-20T11:56:08;7.90;99.90
52941;DHT22;62001;53.366;6.636;2023-12-20T11:58:34;7.90;99.90
52941;DHT22;62001;53.366;6.636;2023-12-20T12:01:01;7.90;99.90
52941;DHT22;62001;53.366;6.636;2023-12-20T12:03:30;7.90;99.90
52941;DHT22;62001;53.366;6.636;2023-12-20T12:05:56;7.90;99.90
52941;DHT22;62001;53.366;6.636;2023-12-20T12:08:22;7.90;99.90
52941;DHT22;62001;53.366;6.636;2023-12-20T12:10:48;7.90;99.90
52941;DHT22;62001;53.366;6.636;2023-12-20T12:13:14;7.90;99.90
52941;DHT22;62001;53.366;6.636;2023-12-20T12:15:40;7.90;99.90
52941;DHT22;62001;53.366;6.636;2023-12-20T12:18:08;7.90;99.90
52941;DHT22;62001;53.366;6.636;2023-12-20T12:20:33;7.90;99.90
52941;DHT22;62001;53.366;6.636;2023-12-20T12:23:00;7.80;99.90
52941;DHT22;62001;53.366;6.636;2023-12-20T12:25:26;7.80;99.90
52941;DHT22;62001;53.366;6.636;2023-12-20T12:27:54;7.70;99.90
52941;DHT22;62001;53.366;6.636;2023-12-20T12:30:19;7.70;99.90
52941;DHT22;62001;53.366;6.636;2023-12-20T12:32:47;7.70;99.90
52941;DHT22;62001;53.366;6.636;2023-12-20T12:35:14;7.70;99.90
52941;DHT22;62001;53.366;6.636;2023-12-20T12:37:41;7.70;99.90
52941;DHT22;62001;53.366;6.636;2023-12-20T12:40:12;7.70;99.90
52941;DHT22;62001;53.366;6.636;2023-12-20T12:42:39;7.70;99.90
52941;DHT22;62001;53.366;6.636;2023-12-20T12:45:06;7.70;99.90
52941;DHT22;62001;53.366;6.636;2023-12-20T12:47:32;7.80;99.90
52941;DHT22;62001;53.366;6.636;2023-12-20T12:49:58;7.80;99.90
52941;DHT22;62001;53.366;6.636;2023-12-20T12:52:24;7.80;99.90
52941;DHT22;62001;53.366;6.636;2023-12-20T12:54:50;7.80;99.90
52941;DHT22;62001;53.366;6.636;2023-12-20T12:57:16;7.90;99.90
52941;DHT22;62001;53.366;6.636;2023-12-20T12:59:43;7.90;99.90
52941;DHT22;62001;53.366;6.636;2023-12-20T13:02:11;7.80;99.90
52941;DHT22;62001;53.366;6.636;2023-12-20T13:04:37;7.80;99.90
52941;DHT22;62001;53.366;6.636;2023-12-20T13:07:03;7.70;99.90
52941;DHT22;62001;53.366;6.636;2023-12-20T13:09:29;7.70;99.90
52941;DHT22;62001;53.366;6.636;2023-12-20T13:11:55;7.70;99.90
52941;DHT22;62001;53.366;6.636;2023-12-20T13:14:21;7.70;99.90
52941;DHT22;62001;53.366;6.636;2023-12-20T13:16:47;7.80;99.90
52941;DHT22;62001;53.366;6.636;2023-12-20T13:19:13;7.80;99.90
52941;DHT22;62001;53.366;6.636;2023-12-20T13:21:39;7.90;99.90
52941;DHT22;62001;53.366;6.636;2023-12-20T13:24:05;7.90;99.90
52941;DHT22;62001;53.366;6.636;2023-12-20T13:26:31;7.90;99.90
52941;DHT22;62001;53.366;6.636;2023-12-20T13:28:58;8.00;99.90
52941;DHT22;62001;53.366;6.636;2023-12-20T13:31:24;8.00;99.90
52941;DHT22;62001;53.366;6.636;2023-12-20T13:33:50;7.90;99.90
52941;DHT22;62001;53.366;6.636;2023-12-20T13:36:18;7.90;99.90
52941;DHT22;62001;53.366;6.636;2023-12-20T13:38:44;7.90;99.90
52941;DHT22;62001;53.366;6.636;2023-12-20T13:41:10;7.80;99.90
52941;DHT22;62001;53.366;6.636;2023-12-20T13:43:36;7.70;99.90
52941;DHT22;62001;53.366;6.636;2023-12-20T13:46:02;7.70;99.90
52941;DHT22;62001;53.366;6.636;2023-12-20T13:48:28;7.60;99.90
52941;DHT22;62001;53.366;6.636;2023-12-20T13:50:53;7.60;99.90
52941;DHT22;62001;53.366;6.636;2023-12-20T13:53:20;7.50;99.90
52941;DHT22;62001;53.366;6.636;2023-12-20T13:55:46;7.50;99.90
52941;DHT22;62001;53.366;6.636;2023-12-20T13:58:12;7.40;99.90
52941;DHT22;62001;53.366;6.636;2023-12-20T14:00:38;7.40;99.90
52941;DHT22;62001;53.366;6.636;2023-12-20T14:03:04;7.30;99.90
52941;DHT22;62001;53.366;6.636;2023-12-20T14:05:30;7.30;99.90
52941;DHT22;62001;53.366;6.636;2023-12-20T14:07:57;7.30;99.90
52941;DHT22;62001;53.366;6.636;2023-12-20T14:10:23;7.20;99.90
52941;DHT22;62001;53.366;6.636;2023-12-20T14:12:54;7.20;99.90
52941;DHT22;62001;53.366;6.636;2023-12-20T14:15:21;7.20;99.90
52941;DHT22;62001;53.366;6.636;2023-12-20T14:17:46;7.20;99.90
52941;DHT22;62001;53.366;6.636;2023-12-20T14:20:13;7.20;99.90
52941;DHT22;62001;53.366;6.636;2023-12-20T14:22:38;7.10;99.90
52941;DHT22;62001;53.366;6.636;2023-12-20T14:25:11;7.10;99.90
52941;DHT22;62001;53.366;6.636;2023-12-20T14:27:38;7.10;99.90
52941;DHT22;62001;53.366;6.636;2023-12-20T14:30:04;7.10;99.90
52941;DHT22;62001;53.366;6.636;2023-12-20T14:32:31;7.00;99.90
52941;DHT22;62001;53.366;6.636;2023-12-20T14:34:57;6.90;99.90
52941;DHT22;62001;53.366;6.636;2023-12-20T14:37:23;6.80;99.90
52941;DHT22;62001;53.366;6.636;2023-12-20T14:39:49;6.70;99.90
52941;DHT22;62001;53.366;6.636;2023-12-20T14:42:15;6.70;99.90
52941;DHT22;62001;53.366;6.636;2023-12-20T14:44:41;6.60;99.90
52941;DHT22;62001;53.366;6.636;2023-12-20T14:47:06;6.60;99.90
52941;DHT22;62001;53.366;6.636;2023-12-20T14:49:32;6.50;99.90
52941;DHT22;62001;53.366;6.636;2023-12-20T14:51:58;6.40;99.90
52941;DHT22;62001;53.366;6.636;2023-12-20T14:54:25;6.40;99.90
52941;DHT22;62001;53.366;6.636;2023-12-20T14:56:51;6.30;99.90
52941;DHT22;62001;53.366;6.636;2023-12-20T14:59:16;6.30;99.90
52941;DHT22;62001;53.366;6.636;2023-12-20T15:01:43;6.30;99.90
52941;DHT22;62001;53.366;6.636;2023-12-20T15:04:10;6.20;99.90
52941;DHT22;62001;53.366;6.636;2023-12-20T15:06:36;6.20;99.90
52941;DHT22;62001;53.366;6.636;2023-12-20T15:09:03;6.20;99.90
52941;DHT22;62001;53.366;6.636;2023-12-20T15:11:31;6.20;99.90
52941;DHT22;62001;53.366;6.636;2023-12-20T15:13:57;6.20;99.90
52941;DHT22;62001;53.366;6.636;2023-12-20T15:16:25;6.20;99.90
52941;DHT22;62001;53.366;6.636;2023-12-20T15:18:52;6.20;99.90
52941;DHT22;62001;53.366;6.636;2023-12-20T15:21:19;6.20;99.90
52941;DHT22;62001;53.366;6.636;2023-12-20T15:23:45;6.20;99.90
52941;DHT22;62001;53.366;6.636;2023-12-20T15:26:21;6.20;99.90
52941;DHT22;62001;53.366;6.636;2023-12-20T15:28:47;6.20;99.90
52941;DHT22;62001;53.366;6.636;2023-12-20T15:31:13;6.20;99.90
52941;DHT22;62001;53.366;6.636;2023-12-20T15:33:41;6.20;99.90
52941;DHT22;62001;53.366;6.636;2023-12-20T15:36:07;6.20;99.90
52941;DHT22;62001;53.366;6.636;2023-12-20T15:38:33;6.20;99.90
52941;DHT22;62001;53.366;6.636;2023-12-20T15:41:00;6.20;99.90
52941;DHT22;62001;53.366;6.636;2023-12-20T15:43:27;6.20;99.90
52941;DHT22;62001;53.366;6.636;2023-12-20T15:45:53;6.20;99.90